sensor_id;sensor_type;location;lat;lon;timestamp;temperature;humidity
4578;DHT22;2301;47.354;8.528;2023-04-30T00:00:02;18.40;68.20
4578;DHT22;2301;47.354;8.528;2023-04-30T00:02:33;18.40;67.60
4578;DHT22;2301;47.354;8.528;2023-04-30T00:05:00;18.40;67.50
4578;DHT22;2301;47.354;8.528;2023-04-30T00:07:26;18.40;67.80
4578;DHT22;2301;47.354;8.528;2023-04-30T00:09:53;18.40;68.10
4578;DHT22;2301;47.354;8.528;2023-04-30T00:12:22;18.20;66.80
4578;DHT22;2301;47.354;8.528;2023-04-30T00:14:49;18.30;68.40
4578;DHT22;2301;47.354;8.528;2023-04-30T00:17:16;18.20;68.30
4578;DHT22;2301;47.354;8.528;2023-04-30T00:19:43;18.30;68.90
4578;DHT22;2301;47.354;8.528;2023-04-30T00:22:10;18.30;68.80
4578;DHT22;2301;47.354;8.528;2023-04-30T00:24:37;18.30;68.10
4578;DHT22;2301;47.354;8.528;2023-04-30T00:27:04;18.30;68.40
4578;DHT22;2301;47.354;8.528;2023-04-30T00:29:32;18.30;68.60
4578;DHT22;2301;47.354;8.528;2023-04-30T00:32:00;18.30;67.80
4578;DHT22;2301;47.354;8.528;2023-04-30T00:34:26;18.30;68.10
4578;DHT22;2301;47.354;8.528;2023-04-30T00:36:54;18.30;68.70
4578;DHT22;2301;47.354;8.528;2023-04-30T00:39:20;18.20;68.30
4578;DHT22;2301;47.354;8.528;2023-04-30T00:41:48;18.20;68.90
4578;DHT22;2301;47.354;8.528;2023-04-30T00:44:14;18.30;69.40
4578;DHT22;2301;47.354;8.528;2023-04-30T00:46:43;18.20;68.60
4578;DHT22;2301;47.354;8.528;2023-04-30T00:49:10;18.20;68.40
4578;DHT22;2301;47.354;8.528;2023-04-30T00:51:39;18.10;68.80
4578;DHT22;2301;47.354;8.528;2023-04-30T00:54:07;18.10;69.20
4578;DHT22;2301;47.354;8.528;2023-04-30T00:56:34;18.10;69.20
4578;DHT22;2301;47.354;8.528;2023-04-30T00:59:02;18.10;69.20
4578;DHT22;2301;47.354;8.528;2023-04-30T01:01:29;18.10;68.90
4578;DHT22;2301;47.354;8.528;2023-04-30T01:03:58;18.10;69.10
4578;DHT22;2301;47.354;8.528;2023-04-30T01:06:26;18.10;68.80
4578;DHT22;2301;47.354;8.528;2023-04-30T01:08:53;18.10;69.10
4578;DHT22;2301;47.354;8.528;2023-04-30T01:11:27;18.10;69.10
4578;DHT22;2301;47.354;8.528;2023-04-30T01:14:04;18.10;69.20
4578;DHT22;2301;47.354;8.528;2023-04-30T01:16:38;18.10;69.00
4578;DHT22;2301;47.354;8.528;2023-04-30T01:19:19;18.00;68.80
4578;DHT22;2301;47.354;8.528;2023-04-30T01:21:50;18.00;68.90
4578;DHT22;2301;47.354;8.528;2023-04-30T01:24:48;18.00;69.30
4578;DHT22;2301;47.354;8.528;2023-04-30T01:27:23;18.00;69.40
4578;DHT22;2301;47.354;8.528;2023-04-30T01:29:58;18.00;69.40
4578;DHT22;2301;47.354;8.528;2023-04-30T01:32:27;18.00;69.40
4578;DHT22;2301;47.354;8.528;2023-04-30T01:34:54;18.00;69.40
4578;DHT22;2301;47.354;8.528;2023-04-30T01:37:26;18.10;69.50
4578;DHT22;2301;47.354;8.528;2023-04-30T01:40:11;18.10;69.10
4578;DHT22;2301;47.354;8.528;2023-04-30T01:42:50;18.10;69.20
4578;DHT22;2301;47.354;8.528;2023-04-30T01:45:32;18.10;69.40
4578;DHT22;2301;47.354;8.528;2023-04-30T01:48:10;18.10;68.90
4578;DHT22;2301;47.354;8.528;2023-04-30T01:50:42;18.10;69.20
4578;DHT22;2301;47.354;8.528;2023-04-30T01:53:17;18.00;68.90
4578;DHT22;2301;47.354;8.528;2023-04-30T01:55:50;18.00;69.30
4578;DHT22;2301;47.354;8.528;2023-04-30T01:58:19;17.90;68.90
4578;DHT22;2301;47.354;8.528;2023-04-30T02:00:49;17.90;69.40
4578;DHT22;2301;47.354;8.528;2023-04-30T02:03:16;17.90;69.20
4578;DHT22;2301;47.354;8.528;2023-04-30T02:05:43;18.00;69.20
4578;DHT22;2301;47.354;8.528;2023-04-30T02:08:11;18.00;69.40
4578;DHT22;2301;47.354;8.528;2023-04-30T02:10:38;18.00;69.40
4578;DHT22;2301;47.354;8.528;2023-04-30T02:13:04;18.00;69.10
4578;DHT22;2301;47.354;8.528;2023-04-30T02:15:31;18.00;68.40
4578;DHT22;2301;47.354;8.528;2023-04-30T02:18:00;17.90;68.70
4578;DHT22;2301;47.354;8.528;2023-04-30T02:20:27;17.90;69.00
4578;DHT22;2301;47.354;8.528;2023-04-30T02:22:53;17.90;69.10
4578;DHT22;2301;47.354;8.528;2023-04-30T02:25:21;17.90;68.60
4578;DHT22;2301;47.354;8.528;2023-04-30T02:27:47;17.90;69.30
4578;DHT22;2301;47.354;8.528;2023-04-30T02:30:16;17.90;70.20
4578;DHT22;2301;47.354;8.528;2023-04-30T02:32:44;17.90;69.20
4578;DHT22;2301;47.354;8.528;2023-04-30T02:35:12;17.90;68.90
4578;DHT22;2301;47.354;8.528;2023-04-30T02:37:39;17.90;68.90
4578;DHT22;2301;47.354;8.528;2023-04-30T02:40:07;17.90;69.00
4578;DHT22;2301;47.354;8.528;2023-04-30T02:42:35;17.90;68.80
4578;DHT22;2301;47.354;8.528;2023-04-30T02:45:02;17.90;69.20
4578;DHT22;2301;47.354;8.528;2023-04-30T02:47:29;17.90;68.90
4578;DHT22;2301;47.354;8.528;2023-04-30T02:49:56;17.90;68.90
4578;DHT22;2301;47.354;8.528;2023-04-30T02:52:25;17.90;68.70
4578;DHT22;2301;47.354;8.528;2023-04-30T02:54:52;17.90;69.00
4578;DHT22;2301;47.354;8.528;2023-04-30T02:57:19;17.90;70.00
4578;DHT22;2301;47.354;8.528;2023-04-30T02:59:46;17.80;68.80
4578;DHT22;2301;47.354;8.528;2023-04-30T03:02:13;17.80;69.20
4578;DHT22;2301;47.354;8.528;2023-04-30T03:04:41;17.90;69.70
4578;DHT22;2301;47.354;8.528;2023-04-30T03:07:08;17.80;69.90
4578;DHT22;2301;47.354;8.528;2023-04-30T03:09:36;17.90;69.90
4578;DHT22;2301;47.354;8.528;2023-04-30T03:12:03;17.90;69.60
4578;DHT22;2301;47.354;8.528;2023-04-30T03:14:30;17.80;69.60
4578;DHT22;2301;47.354;8.528;2023-04-30T03:16:57;17.80;69.40
4578;DHT22;2301;47.354;8.528;2023-04-30T03:19:24;17.80;69.30
4578;DHT22;2301;47.354;8.528;2023-04-30T03:21:51;17.80;69.30
4578;DHT22;2301;47.354;8.528;2023-04-30T03:24:18;17.70;69.10
4578;DHT22;2301;47.354;8.528;2023-04-30T03:26:47;17.70;69.60
4578;DHT22;2301;47.354;8.528;2023-04-30T03:29:14;17.80;69.60
4578;DHT22;2301;47.354;8.528;2023-04-30T03:31:40;17.80;69.30
4578;DHT22;2301;47.354;8.528;2023-04-30T03:34:07;17.80;69.40
4578;DHT22;2301;47.354;8.528;2023-04-30T03:36:34;17.80;69.20
4578;DHT22;2301;47.354;8.528;2023-04-30T03:39:02;17.80;69.20
4578;DHT22;2301;47.354;8.528;2023-04-30T03:41:29;17.80;69.20
4578;DHT22;2301;47.354;8.528;2023-04-30T03:43:58;17.80;69.30
4578;DHT22;2301;47.354;8.528;2023-04-30T03:46:25;17.80;69.30
4578;DHT22;2301;47.354;8.528;2023-04-30T03:48:52;17.80;69.30
4578;DHT22;2301;47.354;8.528;2023-04-30T03:51:20;17.70;69.50
4578;DHT22;2301;47.354;8.528;2023-04-30T03:53:47;17.70;68.90
4578;DHT22;2301;47.354;8.528;2023-04-30T03:56:14;17.70;69.10
4578;DHT22;2301;47.354;8.528;2023-04-30T03:58:41;17.70;69.60
4578;DHT22;2301;47.354;8.528;2023-04-30T04:01:10;17.70;69.70
4578;DHT22;2301;47.354;8.528;2023-04-30T04:03:37;17.70;69.40
4578;DHT22;2301;47.354;8.528;2023-04-30T04:06:04;17.70;70.10
4578;DHT22;2301;47.354;8.528;2023-04-30T04:08:31;17.70;69.00
4578;DHT22;2301;47.354;8.528;2023-04-30T04:10:58;17.70;69.40
4578;DHT22;2301;47.354;8.528;2023-04-30T04:13:26;17.70;69.60
4578;DHT22;2301;47.354;8.528;2023-04-30T04:15:52;17.70;69.30
4578;DHT22;2301;47.354;8.528;2023-04-30T04:18:21;17.70;69.20
4578;DHT22;2301;47.354;8.528;2023-04-30T04:20:48;17.70;69.60
4578;DHT22;2301;47.354;8.528;2023-04-30T04:23:15;17.80;69.60
4578;DHT22;2301;47.354;8.528;2023-04-30T04:25:42;17.80;69.70
4578;DHT22;2301;47.354;8.528;2023-04-30T04:28:14;17.80;69.30
4578;DHT22;2301;47.354;8.528;2023-04-30T04:30:41;17.70;69.70
4578;DHT22;2301;47.354;8.528;2023-04-30T04:33:08;17.70;69.40
4578;DHT22;2301;47.354;8.528;2023-04-30T04:35:38;17.70;69.70
4578;DHT22;2301;47.354;8.528;2023-04-30T04:38:05;17.70;69.70
4578;DHT22;2301;47.354;8.528;2023-04-30T04:40:32;17.70;69.20
4578;DHT22;2301;47.354;8.528;2023-04-30T04:43:00;17.70;69.10
4578;DHT22;2301;47.354;8.528;2023-04-30T04:45:26;17.70;67.90
4578;DHT22;2301;47.354;8.528;2023-04-30T04:47:53;17.50;66.50
4578;DHT22;2301;47.354;8.528;2023-04-30T04:50:20;17.30;66.30
4578;DHT22;2301;47.354;8.528;2023-04-30T04:52:49;17.10;66.40
4578;DHT22;2301;47.354;8.528;2023-04-30T04:55:16;17.00;66.60
4578;DHT22;2301;47.354;8.528;2023-04-30T04:57:43;16.90;67.00
4578;DHT22;2301;47.354;8.528;2023-04-30T05:00:11;16.70;67.10
4578;DHT22;2301;47.354;8.528;2023-04-30T05:02:38;16.60;67.40
4578;DHT22;2301;47.354;8.528;2023-04-30T05:05:05;16.50;67.90
4578;DHT22;2301;47.354;8.528;2023-04-30T05:07:32;16.30;68.10
4578;DHT22;2301;47.354;8.528;2023-04-30T05:10:02;16.20;68.60
4578;DHT22;2301;47.354;8.528;2023-04-30T05:12:29;16.10;69.50
4578;DHT22;2301;47.354;8.528;2023-04-30T05:14:56;16.10;68.90
4578;DHT22;2301;47.354;8.528;2023-04-30T05:17:24;16.10;69.30
4578;DHT22;2301;47.354;8.528;2023-04-30T05:19:52;16.10;69.50
4578;DHT22;2301;47.354;8.528;2023-04-30T05:22:19;16.10;69.70
4578;DHT22;2301;47.354;8.528;2023-04-30T05:24:46;16.00;69.70
4578;DHT22;2301;47.354;8.528;2023-04-30T05:27:14;16.10;69.80
4578;DHT22;2301;47.354;8.528;2023-04-30T05:29:41;16.00;69.90
4578;DHT22;2301;47.354;8.528;2023-04-30T05:32:09;15.90;70.00
4578;DHT22;2301;47.354;8.528;2023-04-30T05:34:35;15.80;70.10
4578;DHT22;2301;47.354;8.528;2023-04-30T05:37:02;15.80;70.70
4578;DHT22;2301;47.354;8.528;2023-04-30T05:39:29;15.80;71.00
4578;DHT22;2301;47.354;8.528;2023-04-30T05:41:56;15.70;71.10
4578;DHT22;2301;47.354;8.528;2023-04-30T05:44:25;15.70;71.30
4578;DHT22;2301;47.354;8.528;2023-04-30T05:46:54;15.70;71.40
4578;DHT22;2301;47.354;8.528;2023-04-30T05:49:21;15.70;71.50
4578;DHT22;2301;47.354;8.528;2023-04-30T05:51:49;15.70;71.70
4578;DHT22;2301;47.354;8.528;2023-04-30T05:54:16;15.70;71.70
4578;DHT22;2301;47.354;8.528;2023-04-30T05:56:42;15.70;71.70
4578;DHT22;2301;47.354;8.528;2023-04-30T05:59:09;15.60;71.90
4578;DHT22;2301;47.354;8.528;2023-04-30T06:01:38;15.70;72.10
4578;DHT22;2301;47.354;8.528;2023-04-30T06:04:06;15.60;72.20
4578;DHT22;2301;47.354;8.528;2023-04-30T06:06:33;15.70;72.30
4578;DHT22;2301;47.354;8.528;2023-04-30T06:09:01;15.70;72.10
4578;DHT22;2301;47.354;8.528;2023-04-30T06:11:29;15.60;71.90
4578;DHT22;2301;47.354;8.528;2023-04-30T06:13:56;15.70;72.20
4578;DHT22;2301;47.354;8.528;2023-04-30T06:16:23;15.70;72.20
4578;DHT22;2301;47.354;8.528;2023-04-30T06:18:51;15.60;72.20
4578;DHT22;2301;47.354;8.528;2023-04-30T06:21:18;15.70;72.20
4578;DHT22;2301;47.354;8.528;2023-04-30T06:23:48;15.70;72.20
4578;DHT22;2301;47.354;8.528;2023-04-30T06:26:19;15.70;72.30
4578;DHT22;2301;47.354;8.528;2023-04-30T06:28:51;15.70;72.20
4578;DHT22;2301;47.354;8.528;2023-04-30T06:31:18;15.70;72.10
4578;DHT22;2301;47.354;8.528;2023-04-30T06:33:45;15.60;72.70
4578;DHT22;2301;47.354;8.528;2023-04-30T06:36:14;15.60;72.20
4578;DHT22;2301;47.354;8.528;2023-04-30T06:38:41;15.60;72.40
4578;DHT22;2301;47.354;8.528;2023-04-30T06:41:08;15.60;72.60
4578;DHT22;2301;47.354;8.528;2023-04-30T06:43:35;15.60;72.60
4578;DHT22;2301;47.354;8.528;2023-04-30T06:46:02;15.60;72.70
4578;DHT22;2301;47.354;8.528;2023-04-30T06:48:29;15.60;72.70
4578;DHT22;2301;47.354;8.528;2023-04-30T06:50:57;15.70;72.70
4578;DHT22;2301;47.354;8.528;2023-04-30T06:53:26;15.70;72.60
4578;DHT22;2301;47.354;8.528;2023-04-30T06:55:53;15.70;72.60
4578;DHT22;2301;47.354;8.528;2023-04-30T06:58:20;15.70;72.80
4578;DHT22;2301;47.354;8.528;2023-04-30T07:00:47;15.70;72.60
4578;DHT22;2301;47.354;8.528;2023-04-30T07:03:14;15.70;72.60
4578;DHT22;2301;47.354;8.528;2023-04-30T07:05:41;15.70;72.60
4578;DHT22;2301;47.354;8.528;2023-04-30T07:08:08;15.70;72.60
4578;DHT22;2301;47.354;8.528;2023-04-30T07:10:37;15.70;72.70
4578;DHT22;2301;47.354;8.528;2023-04-30T07:13:04;15.80;72.90
4578;DHT22;2301;47.354;8.528;2023-04-30T07:15:32;15.80;72.60
4578;DHT22;2301;47.354;8.528;2023-04-30T07:17:59;15.80;72.30
4578;DHT22;2301;47.354;8.528;2023-04-30T07:20:26;15.80;72.60
4578;DHT22;2301;47.354;8.528;2023-04-30T07:22:53;16.00;72.80
4578;DHT22;2301;47.354;8.528;2023-04-30T07:25:20;16.00;72.60
4578;DHT22;2301;47.354;8.528;2023-04-30T07:27:50;16.10;72.30
4578;DHT22;2301;47.354;8.528;2023-04-30T07:30:17;16.10;72.30
4578;DHT22;2301;47.354;8.528;2023-04-30T07:32:44;16.20;72.50
4578;DHT22;2301;47.354;8.528;2023-04-30T07:35:11;16.20;72.20
4578;DHT22;2301;47.354;8.528;2023-04-30T07:37:39;16.30;72.20
4578;DHT22;2301;47.354;8.528;2023-04-30T07:40:07;16.30;72.10
4578;DHT22;2301;47.354;8.528;2023-04-30T07:42:37;16.30;72.10
4578;DHT22;2301;47.354;8.528;2023-04-30T07:45:07;16.30;71.80
4578;DHT22;2301;47.354;8.528;2023-04-30T07:47:34;16.40;71.50
4578;DHT22;2301;47.354;8.528;2023-04-30T07:50:01;16.40;71.50
4578;DHT22;2301;47.354;8.528;2023-04-30T07:52:28;16.40;71.50
4578;DHT22;2301;47.354;8.528;2023-04-30T07:54:55;16.40;71.50
4578;DHT22;2301;47.354;8.528;2023-04-30T07:57:22;16.50;71.70
4578;DHT22;2301;47.354;8.528;2023-04-30T07:59:51;16.50;71.50
4578;DHT22;2301;47.354;8.528;2023-04-30T08:02:19;16.50;71.30
4578;DHT22;2301;47.354;8.528;2023-04-30T08:04:46;16.50;71.40
4578;DHT22;2301;47.354;8.528;2023-04-30T08:07:14;16.50;71.60
4578;DHT22;2301;47.354;8.528;2023-04-30T08:09:41;16.70;73.40
4578;DHT22;2301;47.354;8.528;2023-04-30T08:12:08;17.00;74.40
4578;DHT22;2301;47.354;8.528;2023-04-30T08:14:35;17.40;74.00
4578;DHT22;2301;47.354;8.528;2023-04-30T08:17:02;17.90;73.20
4578;DHT22;2301;47.354;8.528;2023-04-30T08:19:30;18.20;72.10
4578;DHT22;2301;47.354;8.528;2023-04-30T08:21:58;18.60;70.50
4578;DHT22;2301;47.354;8.528;2023-04-30T08:24:25;18.80;69.40
4578;DHT22;2301;47.354;8.528;2023-04-30T08:26:52;19.10;68.60
4578;DHT22;2301;47.354;8.528;2023-04-30T08:29:19;19.20;67.70
4578;DHT22;2301;47.354;8.528;2023-04-30T08:31:46;19.50;67.10
4578;DHT22;2301;47.354;8.528;2023-04-30T08:34:13;19.70;68.40
4578;DHT22;2301;47.354;8.528;2023-04-30T08:36:42;20.10;67.90
4578;DHT22;2301;47.354;8.528;2023-04-30T08:39:08;20.30;65.00
4578;DHT22;2301;47.354;8.528;2023-04-30T08:41:38;20.60;64.30
4578;DHT22;2301;47.354;8.528;2023-04-30T08:44:09;20.60;62.90
4578;DHT22;2301;47.354;8.528;2023-04-30T08:46:37;20.70;62.80
4578;DHT22;2301;47.354;8.528;2023-04-30T08:49:04;20.60;61.80
4578;DHT22;2301;47.354;8.528;2023-04-30T08:51:32;20.50;61.40
4578;DHT22;2301;47.354;8.528;2023-04-30T08:54:01;20.50;61.80
4578;DHT22;2301;47.354;8.528;2023-04-30T08:56:28;20.50;61.30
4578;DHT22;2301;47.354;8.528;2023-04-30T08:58:55;20.50;60.70
4578;DHT22;2301;47.354;8.528;2023-04-30T09:01:23;20.60;60.70
4578;DHT22;2301;47.354;8.528;2023-04-30T09:03:50;20.80;61.30
4578;DHT22;2301;47.354;8.528;2023-04-30T09:06:17;20.90;60.60
4578;DHT22;2301;47.354;8.528;2023-04-30T09:08:45;21.00;59.80
4578;DHT22;2301;47.354;8.528;2023-04-30T09:11:24;21.10;59.60
4578;DHT22;2301;47.354;8.528;2023-04-30T09:13:53;21.30;59.40
4578;DHT22;2301;47.354;8.528;2023-04-30T09:16:20;21.70;59.20
4578;DHT22;2301;47.354;8.528;2023-04-30T09:18:47;21.70;57.90
4578;DHT22;2301;47.354;8.528;2023-04-30T09:21:15;21.80;57.90
4578;DHT22;2301;47.354;8.528;2023-04-30T09:23:53;21.90;58.00
4578;DHT22;2301;47.354;8.528;2023-04-30T09:26:30;22.10;57.30
4578;DHT22;2301;47.354;8.528;2023-04-30T09:28:58;22.20;57.20
4578;DHT22;2301;47.354;8.528;2023-04-30T09:31:26;22.40;57.20
4578;DHT22;2301;47.354;8.528;2023-04-30T09:33:53;22.40;56.80
4578;DHT22;2301;47.354;8.528;2023-04-30T09:36:20;22.50;56.80
4578;DHT22;2301;47.354;8.528;2023-04-30T09:38:47;22.70;56.00
4578;DHT22;2301;47.354;8.528;2023-04-30T09:41:21;22.80;55.40
4578;DHT22;2301;47.354;8.528;2023-04-30T09:43:50;22.80;55.30
4578;DHT22;2301;47.354;8.528;2023-04-30T09:46:19;22.60;55.00
4578;DHT22;2301;47.354;8.528;2023-04-30T09:48:48;22.30;55.50
4578;DHT22;2301;47.354;8.528;2023-04-30T09:51:21;21.90;55.30
4578;DHT22;2301;47.354;8.528;2023-04-30T09:53:50;21.60;56.10
4578;DHT22;2301;47.354;8.528;2023-04-30T09:56:20;21.30;56.60
4578;DHT22;2301;47.354;8.528;2023-04-30T09:58:51;21.20;57.00
4578;DHT22;2301;47.354;8.528;2023-04-30T10:01:21;21.10;57.30
4578;DHT22;2301;47.354;8.528;2023-04-30T10:03:51;21.10;57.30
4578;DHT22;2301;47.354;8.528;2023-04-30T10:06:20;21.10;57.50
4578;DHT22;2301;47.354;8.528;2023-04-30T10:08:50;21.30;58.00
4578;DHT22;2301;47.354;8.528;2023-04-30T10:11:19;21.30;57.30
4578;DHT22;2301;47.354;8.528;2023-04-30T10:13:53;21.50;57.40
4578;DHT22;2301;47.354;8.528;2023-04-30T10:16:29;21.90;57.70
4578;DHT22;2301;47.354;8.528;2023-04-30T10:19:05;22.70;57.70
4578;DHT22;2301;47.354;8.528;2023-04-30T10:21:33;23.60;55.20
4578;DHT22;2301;47.354;8.528;2023-04-30T10:24:00;24.40;54.10
4578;DHT22;2301;47.354;8.528;2023-04-30T10:26:29;24.50;52.50
4578;DHT22;2301;47.354;8.528;2023-04-30T10:28:59;24.00;52.20
4578;DHT22;2301;47.354;8.528;2023-04-30T10:31:27;23.50;52.60
4578;DHT22;2301;47.354;8.528;2023-04-30T10:34:04;23.10;53.40
4578;DHT22;2301;47.354;8.528;2023-04-30T10:36:37;22.70;54.00
4578;DHT22;2301;47.354;8.528;2023-04-30T10:39:06;22.90;54.00
4578;DHT22;2301;47.354;8.528;2023-04-30T10:41:34;22.90;53.60
4578;DHT22;2301;47.354;8.528;2023-04-30T10:44:02;22.90;52.90
4578;DHT22;2301;47.354;8.528;2023-04-30T10:46:33;22.80;51.90
4578;DHT22;2301;47.354;8.528;2023-04-30T10:49:00;22.80;52.60
4578;DHT22;2301;47.354;8.528;2023-04-30T10:51:46;22.60;51.80
4578;DHT22;2301;47.354;8.528;2023-04-30T10:54:15;22.70;52.30
4578;DHT22;2301;47.354;8.528;2023-04-30T10:56:44;22.90;52.80
4578;DHT22;2301;47.354;8.528;2023-04-30T10:59:14;23.00;52.90
4578;DHT22;2301;47.354;8.528;2023-04-30T11:01:54;23.20;52.90
4578;DHT22;2301;47.354;8.528;2023-04-30T11:04:22;23.40;52.20
4578;DHT22;2301;47.354;8.528;2023-04-30T11:06:55;23.30;52.40
4578;DHT22;2301;47.354;8.528;2023-04-30T11:09:35;23.20;52.40
4578;DHT22;2301;47.354;8.528;2023-04-30T11:12:04;23.10;52.10
4578;DHT22;2301;47.354;8.528;2023-04-30T11:14:33;22.90;52.40
4578;DHT22;2301;47.354;8.528;2023-04-30T11:17:00;22.70;52.10
4578;DHT22;2301;47.354;8.528;2023-04-30T11:19:27;22.50;52.30
4578;DHT22;2301;47.354;8.528;2023-04-30T11:22:14;22.40;52.60
4578;DHT22;2301;47.354;8.528;2023-04-30T11:25:02;22.20;52.20
4578;DHT22;2301;47.354;8.528;2023-04-30T11:27:31;22.00;52.70
4578;DHT22;2301;47.354;8.528;2023-04-30T11:30:00;21.90;53.10
4578;DHT22;2301;47.354;8.528;2023-04-30T11:32:32;21.70;52.90
4578;DHT22;2301;47.354;8.528;2023-04-30T11:35:00;21.60;53.00
4578;DHT22;2301;47.354;8.528;2023-04-30T11:37:30;21.50;53.30
4578;DHT22;2301;47.354;8.528;2023-04-30T11:40:00;21.40;53.60
4578;DHT22;2301;47.354;8.528;2023-04-30T11:42:27;21.30;53.50
4578;DHT22;2301;47.354;8.528;2023-04-30T11:45:04;21.20;54.10
4578;DHT22;2301;47.354;8.528;2023-04-30T11:47:41;21.10;53.80
4578;DHT22;2301;47.354;8.528;2023-04-30T11:50:09;20.90;54.10
4578;DHT22;2301;47.354;8.528;2023-04-30T11:52:36;20.90;54.30
4578;DHT22;2301;47.354;8.528;2023-04-30T11:55:22;20.90;54.30
4578;DHT22;2301;47.354;8.528;2023-04-30T11:57:51;20.90;54.60
4578;DHT22;2301;47.354;8.528;2023-04-30T12:00:25;20.90;54.70
4578;DHT22;2301;47.354;8.528;2023-04-30T12:02:54;20.90;54.90
4578;DHT22;2301;47.354;8.528;2023-04-30T12:05:22;20.90;54.90
4578;DHT22;2301;47.354;8.528;2023-04-30T12:07:51;20.90;54.80
4578;DHT22;2301;47.354;8.528;2023-04-30T12:10:18;20.90;54.40
4578;DHT22;2301;47.354;8.528;2023-04-30T12:12:47;20.90;54.70
4578;DHT22;2301;47.354;8.528;2023-04-30T12:15:16;20.80;54.90
4578;DHT22;2301;47.354;8.528;2023-04-30T12:17:45;20.90;55.30
4578;DHT22;2301;47.354;8.528;2023-04-30T12:20:13;20.90;55.10
4578;DHT22;2301;47.354;8.528;2023-04-30T12:22:41;20.90;54.70
4578;DHT22;2301;47.354;8.528;2023-04-30T12:25:11;20.90;54.70
4578;DHT22;2301;47.354;8.528;2023-04-30T12:27:40;20.90;54.80
4578;DHT22;2301;47.354;8.528;2023-04-30T12:30:08;20.80;55.00
4578;DHT22;2301;47.354;8.528;2023-04-30T12:32:39;20.80;54.50
4578;DHT22;2301;47.354;8.528;2023-04-30T12:35:13;20.70;54.60
4578;DHT22;2301;47.354;8.528;2023-04-30T12:37:44;20.60;53.90
4578;DHT22;2301;47.354;8.528;2023-04-30T12:40:12;20.40;54.30
4578;DHT22;2301;47.354;8.528;2023-04-30T12:42:40;20.40;54.50
4578;DHT22;2301;47.354;8.528;2023-04-30T12:45:09;20.30;54.90
4578;DHT22;2301;47.354;8.528;2023-04-30T12:47:38;20.30;55.20
4578;DHT22;2301;47.354;8.528;2023-04-30T12:50:10;20.30;55.60
4578;DHT22;2301;47.354;8.528;2023-04-30T12:52:38;20.40;55.60
4578;DHT22;2301;47.354;8.528;2023-04-30T12:55:16;20.40;55.50
4578;DHT22;2301;47.354;8.528;2023-04-30T12:58:07;20.40;55.80
4578;DHT22;2301;47.354;8.528;2023-04-30T13:00:48;20.50;56.10
4578;DHT22;2301;47.354;8.528;2023-04-30T13:03:16;20.50;56.00
4578;DHT22;2301;47.354;8.528;2023-04-30T13:05:48;20.40;55.70
4578;DHT22;2301;47.354;8.528;2023-04-30T13:08:15;20.40;55.10
4578;DHT22;2301;47.354;8.528;2023-04-30T13:10:43;20.40;55.30
4578;DHT22;2301;47.354;8.528;2023-04-30T13:13:11;20.40;55.50
4578;DHT22;2301;47.354;8.528;2023-04-30T13:15:38;20.30;55.50
4578;DHT22;2301;47.354;8.528;2023-04-30T13:18:06;20.30;55.50
4578;DHT22;2301;47.354;8.528;2023-04-30T13:20:34;20.30;55.70
4578;DHT22;2301;47.354;8.528;2023-04-30T13:23:02;20.30;55.90
4578;DHT22;2301;47.354;8.528;2023-04-30T13:25:29;20.30;55.90
4578;DHT22;2301;47.354;8.528;2023-04-30T13:27:56;20.20;55.50
4578;DHT22;2301;47.354;8.528;2023-04-30T13:30:23;20.20;55.70
4578;DHT22;2301;47.354;8.528;2023-04-30T13:32:50;20.20;55.90
4578;DHT22;2301;47.354;8.528;2023-04-30T13:35:18;20.20;55.90
4578;DHT22;2301;47.354;8.528;2023-04-30T13:37:45;20.10;55.50
4578;DHT22;2301;47.354;8.528;2023-04-30T13:40:15;20.10;55.50
4578;DHT22;2301;47.354;8.528;2023-04-30T13:42:42;20.10;55.80
4578;DHT22;2301;47.354;8.528;2023-04-30T13:45:09;20.00;55.60
4578;DHT22;2301;47.354;8.528;2023-04-30T13:47:36;20.00;55.70
4578;DHT22;2301;47.354;8.528;2023-04-30T13:50:05;20.00;55.90
4578;DHT22;2301;47.354;8.528;2023-04-30T13:52:32;19.90;56.10
4578;DHT22;2301;47.354;8.528;2023-04-30T13:54:59;19.90;56.00
4578;DHT22;2301;47.354;8.528;2023-04-30T13:57:28;19.90;56.10
4578;DHT22;2301;47.354;8.528;2023-04-30T13:59:57;19.80;56.40
4578;DHT22;2301;47.354;8.528;2023-04-30T14:02:25;19.90;56.70
4578;DHT22;2301;47.354;8.528;2023-04-30T14:04:52;19.80;56.60
4578;DHT22;2301;47.354;8.528;2023-04-30T14:07:19;19.80;56.50
4578;DHT22;2301;47.354;8.528;2023-04-30T14:09:46;19.80;56.60
4578;DHT22;2301;47.354;8.528;2023-04-30T14:12:14;19.80;56.70
4578;DHT22;2301;47.354;8.528;2023-04-30T14:14:43;19.80;57.10
4578;DHT22;2301;47.354;8.528;2023-04-30T14:17:10;19.80;56.90
4578;DHT22;2301;47.354;8.528;2023-04-30T14:19:36;19.80;56.70
4578;DHT22;2301;47.354;8.528;2023-04-30T14:22:03;19.80;56.90
4578;DHT22;2301;47.354;8.528;2023-04-30T14:24:30;19.70;56.50
4578;DHT22;2301;47.354;8.528;2023-04-30T14:26:57;19.70;56.60
4578;DHT22;2301;47.354;8.528;2023-04-30T14:29:26;19.70;56.70
4578;DHT22;2301;47.354;8.528;2023-04-30T14:31:54;19.70;56.80
4578;DHT22;2301;47.354;8.528;2023-04-30T14:34:22;19.70;56.90
4578;DHT22;2301;47.354;8.528;2023-04-30T14:36:49;19.60;56.60
4578;DHT22;2301;47.354;8.528;2023-04-30T14:39:16;19.50;56.40
4578;DHT22;2301;47.354;8.528;2023-04-30T14:41:44;19.50;56.40
4578;DHT22;2301;47.354;8.528;2023-04-30T14:44:11;19.50;56.70
4578;DHT22;2301;47.354;8.528;2023-04-30T14:46:38;19.50;57.40
4578;DHT22;2301;47.354;8.528;2023-04-30T14:49:06;19.50;57.00
4578;DHT22;2301;47.354;8.528;2023-04-30T14:51:33;19.40;56.70
4578;DHT22;2301;47.354;8.528;2023-04-30T14:54:01;19.40;56.90
4578;DHT22;2301;47.354;8.528;2023-04-30T14:56:28;19.40;56.90
4578;DHT22;2301;47.354;8.528;2023-04-30T14:58:55;19.30;56.60
4578;DHT22;2301;47.354;8.528;2023-04-30T15:01:22;19.30;56.70
4578;DHT22;2301;47.354;8.528;2023-04-30T15:03:49;19.20;56.90
4578;DHT22;2301;47.354;8.528;2023-04-30T15:06:17;19.20;57.70
4578;DHT22;2301;47.354;8.528;2023-04-30T15:08:44;19.20;57.10
4578;DHT22;2301;47.354;8.528;2023-04-30T15:11:11;19.20;57.10
4578;DHT22;2301;47.354;8.528;2023-04-30T15:13:39;19.20;57.30
4578;DHT22;2301;47.354;8.528;2023-04-30T15:16:06;19.20;57.10
4578;DHT22;2301;47.354;8.528;2023-04-30T15:18:33;19.20;56.90
4578;DHT22;2301;47.354;8.528;2023-04-30T15:21:00;19.20;56.90
4578;DHT22;2301;47.354;8.528;2023-04-30T15:23:29;19.20;57.10
4578;DHT22;2301;47.354;8.528;2023-04-30T15:25:56;19.10;57.00
4578;DHT22;2301;47.354;8.528;2023-04-30T15:28:23;19.10;56.90
4578;DHT22;2301;47.354;8.528;2023-04-30T15:30:50;19.10;56.90
4578;DHT22;2301;47.354;8.528;2023-04-30T15:33:17;19.10;57.00
4578;DHT22;2301;47.354;8.528;2023-04-30T15:35:44;19.00;57.00
4578;DHT22;2301;47.354;8.528;2023-04-30T15:38:11;19.00;57.10
4578;DHT22;2301;47.354;8.528;2023-04-30T15:40:40;19.00;57.10
4578;DHT22;2301;47.354;8.528;2023-04-30T15:43:07;19.00;57.20
4578;DHT22;2301;47.354;8.528;2023-04-30T15:45:34;19.00;57.30
4578;DHT22;2301;47.354;8.528;2023-04-30T15:48:01;19.00;57.40
4578;DHT22;2301;47.354;8.528;2023-04-30T15:50:28;19.00;57.40
4578;DHT22;2301;47.354;8.528;2023-04-30T15:52:56;19.00;57.50
4578;DHT22;2301;47.354;8.528;2023-04-30T15:55:23;19.00;57.40
4578;DHT22;2301;47.354;8.528;2023-04-30T15:57:52;19.00;57.40
4578;DHT22;2301;47.354;8.528;2023-04-30T16:00:20;19.00;57.60
4578;DHT22;2301;47.354;8.528;2023-04-30T16:02:48;19.00;57.70
4578;DHT22;2301;47.354;8.528;2023-04-30T16:05:15;19.00;58.00
4578;DHT22;2301;47.354;8.528;2023-04-30T16:07:43;19.00;57.90
4578;DHT22;2301;47.354;8.528;2023-04-30T16:10:10;19.00;58.00